Maldives Meteorological Service

TAFS

Station TAF
VRMM
200500Z 2006/2112 05012KT 8000 FEW019 TEMPO 2010/2016 FEW019CB=
VRMH
200500Z 2006/2106 11005KT 7000 FEW019=
VRMK
200500Z 2006/2106 03009KT 8000 FEW018 TEMPO 2009/2015 FEW018CB=
VRMT
200500Z 2006/2106 04007KT 9999 FEW018TCU TEMPO 2008/2014 5000 -TSRA FEW017CB=
VRMG
200500Z 2006/2112 05007KT 9999 FEW018TCU TEMPO 2008/2014 4000 TSRA SCT016 FEW017CB=